Time;durP1;ratioP1;P1;durP2;ratioP2;P2;SDS_P1;SDS_P2;PMS_P1;PMS_P2;Temp;Humidity;BMP_temperature;BMP_pressure;BME280_temperature;BME280_humidity;BME280_pressure;Samples;Min_cycle;Max_cycle;Signal;HPM_P1;HPM_P2
2023/03/18 00:00:33;;;;;;;4.25;1.63;;;11.00;80.40;;;;;;4938023;29;20020;-82
2023/03/18 00:02:59;;;;;;;3.35;1.65;;;11.00;80.40;;;;;;4938110;29;20083;-81
2023/03/18 00:05:24;;;;;;;2.53;1.58;;;11.00;80.40;;;;;;4937723;29;20041;-81
2023/03/18 00:07:50;;;;;;;3.17;1.80;;;11.00;80.50;;;;;;4960628;28;20038;-82
2023/03/18 00:10:15;;;;;;;3.08;1.73;;;11.00;80.40;;;;;;4943380;29;20094;-82
2023/03/18 00:12:42;;;;;;;3.38;1.75;;;11.00;80.40;;;;;;4943213;29;20031;-82
2023/03/18 00:15:11;;;;;;;4.32;1.75;;;11.00;80.40;;;;;;4943528;29;20024;-82
2023/03/18 00:17:38;;;;;;;3.85;1.98;;;11.00;80.40;;;;;;4942502;29;20038;-82
2023/03/18 00:20:05;;;;;;;3.35;1.88;;;10.90;80.30;;;;;;4942442;29;20028;-80
2023/03/18 00:22:36;;;;;;;3.97;1.65;;;11.00;80.40;;;;;;4960317;29;20079;-82
2023/03/18 00:25:03;;;;;;;3.00;1.60;;;10.90;80.40;;;;;;4960169;29;20023;-82
2023/03/18 00:27:29;;;;;;;4.65;1.77;;;11.00;80.40;;;;;;4940246;29;20031;-81
2023/03/18 00:29:56;;;;;;;3.95;1.70;;;10.90;80.40;;;;;;4938651;29;20063;-82
2023/03/18 00:32:22;;;;;;;3.55;1.77;;;11.00;80.40;;;;;;4938515;29;20034;-82
2023/03/18 00:34:48;;;;;;;3.10;1.77;;;11.00;80.40;;;;;;4957998;29;20397;-82
2023/03/18 00:37:18;;;;;;;4.63;1.90;;;11.00;80.40;;;;;;4941735;29;20027;-83
2023/03/18 00:39:45;;;;;;;3.75;1.67;;;10.90;80.40;;;;;;4941593;29;20490;-82
2023/03/18 00:42:12;;;;;;;4.25;1.92;;;10.90;80.40;;;;;;4958844;29;20027;-82
2023/03/18 00:44:38;;;;;;;3.53;1.60;;;10.90;80.40;;;;;;4941305;29;20031;-82
2023/03/18 00:47:04;;;;;;;4.72;1.80;;;11.00;80.40;;;;;;4941332;29;20405;-82
2023/03/18 00:49:30;;;;;;;4.25;1.83;;;10.90;80.40;;;;;;4940346;29;20023;-82
2023/03/18 00:51:55;;;;;;;3.42;1.67;;;10.90;80.40;;;;;;4957618;29;20387;-82
2023/03/18 00:54:23;;;;;;;3.28;1.80;;;11.00;80.50;;;;;;4957352;29;20042;-82
2023/03/18 00:56:49;;;;;;;3.20;1.75;;;11.00;80.50;;;;;;4942215;29;20119;-82
2023/03/18 00:59:15;;;;;;;3.80;1.70;;;11.00;80.50;;;;;;4942642;29;20058;-82
2023/03/18 01:01:40;;;;;;;3.47;1.80;;;11.00;80.50;;;;;;4959679;29;20019;-83
2023/03/18 01:04:06;;;;;;;3.28;1.75;;;11.00;80.50;;;;;;4959659;28;20086;-82
2023/03/18 01:06:34;;;;;;;3.33;1.60;;;10.90;80.50;;;;;;4960482;28;20406;-82
2023/03/18 01:09:01;;;;;;;3.33;1.55;;;11.00;80.50;;;;;;4942629;29;20546;-82
2023/03/18 01:11:27;;;;;;;3.92;1.70;;;11.00;80.60;;;;;;4946160;29;20031;-82
2023/03/18 01:13:53;;;;;;;3.53;1.60;;;11.00;80.60;;;;;;4963226;29;20482;-82
2023/03/18 01:16:20;;;;;;;2.97;1.60;;;11.00;80.60;;;;;;4964027;29;20064;-82
2023/03/18 01:18:46;;;;;;;3.90;1.90;;;11.00;80.60;;;;;;4963306;28;20019;-82
2023/03/18 01:21:12;;;;;;;2.85;1.70;;;10.90;80.60;;;;;;4945582;29;20509;-82
2023/03/18 01:23:39;;;;;;;4.32;2.10;;;10.90;80.60;;;;;;4944608;29;20434;-82
2023/03/18 01:26:05;;;;;;;3.35;1.63;;;10.90;80.60;;;;;;4945164;29;20042;-82
2023/03/18 01:28:31;;;;;;;4.38;1.77;;;10.90;80.60;;;;;;4944538;29;20433;-82
2023/03/18 01:30:57;;;;;;;3.38;1.70;;;10.90;80.60;;;;;;4944660;29;20036;-82
2023/03/18 01:33:24;;;;;;;3.85;1.67;;;11.00;80.60;;;;;;4941946;29;20454;-83
2023/03/18 01:35:58;;;;;;;4.25;1.77;;;10.90;80.60;;;;;;4941673;29;20058;-82
2023/03/18 01:38:28;;;;;;;3.63;1.75;;;10.90;80.60;;;;;;4961816;29;20026;-82
2023/03/18 01:40:53;;;;;;;3.72;1.67;;;10.90;80.60;;;;;;4940900;29;20024;-83
2023/03/18 01:43:26;;;;;;;3.65;1.83;;;10.90;80.60;;;;;;4942802;29;20565;-82
2023/03/18 01:45:55;;;;;;;3.63;1.65;;;11.00;80.70;;;;;;4949506;29;20031;-81
2023/03/18 01:48:24;;;;;;;3.92;1.70;;;11.00;80.70;;;;;;4938908;29;20035;-82
2023/03/18 01:51:02;;;;;;;3.88;1.67;;;11.00;80.80;;;;;;4939822;29;20028;-82
2023/03/18 01:53:34;;;;;;;3.58;1.73;;;10.90;80.70;;;;;;4941985;29;20111;-82
2023/03/18 01:56:01;;;;;;;2.80;1.60;;;10.90;80.70;;;;;;4941154;29;20031;-81
2023/03/18 01:58:35;;;;;;;5.28;2.05;;;10.90;81.20;;;;;;4960206;28;20382;-82
2023/03/18 02:01:13;;;;;;;3.50;1.60;;;10.90;80.70;;;;;;4941848;29;20097;-82
2023/03/18 02:03:41;;;;;;;4.63;1.85;;;10.90;80.70;;;;;;4942786;29;20034;-82
2023/03/18 02:06:07;;;;;;;3.65;1.88;;;10.90;80.70;;;;;;4942887;29;20508;-82
2023/03/18 02:08:33;;;;;;;3.85;1.70;;;10.90;80.70;;;;;;4942659;29;20031;-82
2023/03/18 02:10:59;;;;;;;4.15;1.80;;;10.90;80.70;;;;;;4942023;29;20027;-81
2023/03/18 02:13:25;;;;;;;4.90;1.65;;;11.00;80.90;;;;;;4942535;29;20086;-82
2023/03/18 02:15:57;;;;;;;4.45;1.85;;;11.00;80.80;;;;;;4941727;29;20090;-82
2023/03/18 02:18:26;;;;;;;;;;;10.90;80.80;;;;;;4941842;29;20058;-82
2023/03/18 02:21:14;;;;;;;4.13;1.60;;;11.00;80.80;;;;;;4956500;28;19913;-82
2023/03/18 02:24:18;;;;;;;3.30;1.73;;;10.90;80.80;;;;;;4942215;29;20020;-81
2023/03/18 02:27:26;;;;;;;4.40;2.10;;;10.90;80.80;;;;;;4941630;29;20028;-82
2023/03/18 02:29:55;;;;;;;4.22;1.80;;;10.90;80.90;;;;;;4883721;29;20081;-82
2023/03/18 02:32:24;;;;;;;3.67;1.90;;;10.90;80.90;;;;;;4899418;29;20036;-82
2023/03/18 02:34:50;;;;;;;4.22;1.67;;;10.90;80.90;;;;;;4929912;29;20046;-82
2023/03/18 02:37:15;;;;;;;3.72;1.88;;;10.90;80.90;;;;;;4941030;29;20027;-82
2023/03/18 02:39:41;;;;;;;4.60;1.90;;;10.90;80.90;;;;;;4958596;28;20027;-82
2023/03/18 02:42:09;;;;;;;4.25;1.88;;;10.90;81.00;;;;;;4941139;29;20110;-82
2023/03/18 02:44:39;;;;;;;3.70;2.00;;;10.80;80.80;;;;;;4940548;29;20122;-81
2023/03/18 02:47:13;;;;;;;3.72;2.00;;;10.90;80.90;;;;;;4957880;29;20482;-82
2023/03/18 02:49:38;;;;;;;4.68;2.00;;;11.00;81.00;;;;;;4939785;29;20055;-82
2023/03/18 02:52:04;;;;;;;3.67;1.73;;;10.90;80.90;;;;;;4957103;29;20049;-82
2023/03/18 02:54:30;;;;;;;4.00;1.80;;;10.90;81.00;;;;;;4939894;29;20023;-82
2023/03/18 02:56:57;;;;;;;3.38;1.80;;;10.90;81.00;;;;;;4938863;29;20050;-82
2023/03/18 02:59:22;;;;;;;4.50;2.28;;;10.90;80.90;;;;;;4938974;29;20189;-82
2023/03/18 03:01:51;;;;;;;3.50;1.65;;;10.90;81.00;;;;;;4938905;29;20083;-82
2023/03/18 03:04:19;;;;;;;4.18;2.10;;;10.90;81.00;;;;;;4939399;29;20035;-82
2023/03/18 03:06:44;;;;;;;3.50;1.73;;;10.90;81.00;;;;;;4955815;29;20128;-82
2023/03/18 03:09:13;;;;;;;3.70;1.85;;;10.90;81.00;;;;;;4955510;28;20169;-82
2023/03/18 03:11:39;;;;;;;4.90;2.22;;;10.90;81.00;;;;;;4955060;29;20147;-82
2023/03/18 03:14:05;;;;;;;5.32;2.00;;;10.90;81.00;;;;;;4955412;29;20062;-82
2023/03/18 03:16:31;;;;;;;3.70;1.90;;;10.90;81.00;;;;;;4938832;29;20027;-82
2023/03/18 03:18:57;;;;;;;4.22;2.00;;;10.90;81.10;;;;;;4956059;28;20029;-81
2023/03/18 03:21:23;;;;;;;4.38;1.98;;;10.90;81.10;;;;;;4956010;29;20079;-81
2023/03/18 03:23:48;;;;;;;3.53;1.80;;;10.90;81.10;;;;;;4938699;29;20019;-82
2023/03/18 03:26:15;;;;;;;4.03;1.80;;;10.90;81.10;;;;;;4938908;29;20024;-81
2023/03/18 03:28:41;;;;;;;4.15;2.10;;;10.90;81.10;;;;;;4955553;28;20117;-82
2023/03/18 03:31:09;;;;;;;4.15;2.20;;;10.90;81.10;;;;;;4975127;23;20423;-83
2023/03/18 03:33:40;;;;;;;4.72;1.80;;;10.90;81.10;;;;;;4979283;28;20101;-86
2023/03/18 03:36:11;;;;;;;4.23;2.10;;;10.90;81.10;;;;;;5013274;28;20497;-85
2023/03/18 03:38:37;;;;;;;4.70;2.03;;;10.90;81.10;;;;;;4996016;28;20635;-83
2023/03/18 03:41:04;;;;;;;3.70;1.90;;;10.90;81.10;;;;;;5012584;28;20022;-83
2023/03/18 03:43:30;;;;;;;4.45;2.15;;;10.90;81.10;;;;;;5012604;28;20453;-84
2023/03/18 03:45:55;;;;;;;4.32;1.88;;;10.90;81.10;;;;;;5012400;28;20072;-84
2023/03/18 03:48:21;;;;;;;4.18;2.00;;;10.90;81.10;;;;;;4995979;28;20025;-83
2023/03/18 03:50:48;;;;;;;3.78;1.80;;;10.90;81.10;;;;;;5013577;28;20022;-83
2023/03/18 03:53:14;;;;;;;3.60;1.75;;;10.90;81.10;;;;;;5012057;28;20061;-84
2023/03/18 03:55:40;;;;;;;5.22;1.98;;;10.90;81.10;;;;;;4995616;28;20036;-83
2023/03/18 03:58:05;;;;;;;3.28;1.83;;;10.90;81.10;;;;;;4995835;28;20049;-83
2023/03/18 04:00:31;;;;;;;3.75;1.90;;;10.90;81.20;;;;;;4995642;28;20022;-82
2023/03/18 04:02:57;;;;;;;5.03;1.92;;;10.90;81.20;;;;;;4995484;28;20022;-84
2023/03/18 04:05:24;;;;;;;3.95;2.00;;;10.90;81.20;;;;;;4996006;28;20032;-83
2023/03/18 04:07:50;;;;;;;4.35;2.05;;;10.90;81.20;;;;;;5012348;28;20033;-83
2023/03/18 04:10:19;;;;;;;3.80;1.90;;;10.90;81.10;;;;;;4996025;28;20077;-83
2023/03/18 04:12:45;;;;;;;3.45;1.73;;;10.90;81.20;;;;;;5012357;28;20517;-85
2023/03/18 04:15:12;;;;;;;4.53;2.20;;;10.90;81.20;;;;;;5013642;28;20030;-84
2023/03/18 04:17:39;;;;;;;4.70;2.10;;;10.90;81.20;;;;;;4996064;28;20495;-83
2023/03/18 04:20:05;;;;;;;4.47;2.10;;;10.90;81.20;;;;;;5012330;28;20030;-82
2023/03/18 04:22:31;;;;;;;4.15;2.05;;;10.90;81.20;;;;;;5012141;28;20503;-83
2023/03/18 04:24:57;;;;;;;4.85;2.00;;;10.90;81.20;;;;;;4995657;28;20025;-83
2023/03/18 04:27:23;;;;;;;4.03;1.98;;;10.90;81.30;;;;;;5013470;28;20377;-83
2023/03/18 04:29:48;;;;;;;3.97;1.67;;;10.90;81.20;;;;;;4996296;28;20029;-85
2023/03/18 04:32:14;;;;;;;4.40;2.05;;;10.90;81.30;;;;;;4995631;28;20033;-83
2023/03/18 04:34:39;;;;;;;4.65;2.03;;;10.90;81.20;;;;;;4995732;28;20033;-83
2023/03/18 04:37:06;;;;;;;4.45;1.98;;;10.90;81.30;;;;;;4995620;28;20476;-83
2023/03/18 04:39:32;;;;;;;4.22;1.90;;;10.90;81.30;;;;;;4995652;28;20081;-83
2023/03/18 04:41:57;;;;;;;4.22;2.03;;;10.90;81.30;;;;;;4995598;28;20435;-83
2023/03/18 04:44:24;;;;;;;4.53;1.83;;;10.90;81.30;;;;;;4995130;28;20032;-83
2023/03/18 04:46:50;;;;;;;3.55;1.92;;;10.90;81.30;;;;;;4995471;28;20030;-84
2023/03/18 04:49:15;;;;;;;3.75;1.90;;;10.90;81.30;;;;;;5013325;28;20034;-82
2023/03/18 04:51:41;;;;;;;4.35;2.10;;;10.90;81.30;;;;;;5012968;28;20084;-83
2023/03/18 04:54:07;;;;;;;3.92;2.05;;;10.90;81.30;;;;;;4995416;28;20033;-83
2023/03/18 04:56:32;;;;;;;4.28;2.20;;;10.90;81.30;;;;;;5012939;28;20026;-83
2023/03/18 04:58:58;;;;;;;4.47;1.88;;;10.90;81.40;;;;;;5013355;28;20034;-83
2023/03/18 05:01:25;;;;;;;4.03;1.90;;;10.90;81.40;;;;;;5012340;28;20045;-83
2023/03/18 05:03:50;;;;;;;4.35;1.98;;;10.90;81.40;;;;;;4995478;28;20502;-83
2023/03/18 05:06:22;;;;;;;5.03;2.03;;;10.90;81.40;;;;;;4995657;28;20030;-82
2023/03/18 05:08:47;;;;;;;5.07;2.00;;;10.90;81.40;;;;;;5013331;28;20415;-85
2023/03/18 05:11:13;;;;;;;4.75;2.20;;;10.90;81.40;;;;;;4995324;28;20064;-83
2023/03/18 05:13:39;;;;;;;4.70;2.08;;;10.90;81.40;;;;;;4995453;28;20029;-83
2023/03/18 05:16:05;;;;;;;5.28;2.20;;;10.90;81.40;;;;;;4994651;28;20026;-85
2023/03/18 05:18:32;;;;;;;4.10;2.00;;;10.90;81.40;;;;;;4995205;28;20026;-85
2023/03/18 05:20:57;;;;;;;5.35;2.20;;;10.90;81.40;;;;;;4994439;28;20018;-83
2023/03/18 05:23:23;;;;;;;5.32;2.00;;;10.90;81.40;;;;;;5012998;28;20083;-81
2023/03/18 05:25:49;;;;;;;4.32;2.05;;;10.90;81.40;;;;;;4995990;28;20030;-83
2023/03/18 05:28:15;;;;;;;4.38;2.00;;;10.90;81.40;;;;;;4990275;28;20027;-84
2023/03/18 05:30:41;;;;;;;3.90;1.92;;;10.90;81.40;;;;;;4971626;28;20505;-84
2023/03/18 05:33:07;;;;;;;4.13;1.95;;;10.90;81.40;;;;;;4983052;28;20113;-83
2023/03/18 05:35:32;;;;;;;5.53;2.17;;;10.90;81.40;;;;;;4971745;28;20118;-84
2023/03/18 05:37:58;;;;;;;4.47;2.15;;;10.90;81.50;;;;;;4972881;28;20629;-84
2023/03/18 05:40:23;;;;;;;4.13;1.92;;;10.90;81.40;;;;;;4955324;28;20026;-84
2023/03/18 05:42:49;;;;;;;4.55;2.10;;;10.90;81.50;;;;;;4973607;28;20038;-83
2023/03/18 05:45:14;;;;;;;4.57;2.13;;;10.90;81.50;;;;;;4980292;28;20493;-83
2023/03/18 05:47:40;;;;;;;5.30;2.10;;;10.90;82.00;;;;;;4975786;28;20029;-82
2023/03/18 05:50:06;;;;;;;4.85;2.20;;;10.90;81.50;;;;;;4993018;28;20077;-81
2023/03/18 05:52:31;;;;;;;5.10;2.10;;;10.90;81.50;;;;;;4975685;28;20030;-82
2023/03/18 05:54:57;;;;;;;4.40;2.10;;;10.90;81.50;;;;;;4992022;28;20041;-82
2023/03/18 05:57:22;;;;;;;4.65;2.00;;;10.90;82.00;;;;;;4979303;28;20026;-83
2023/03/18 05:59:48;;;;;;;4.45;2.00;;;10.90;81.50;;;;;;4979990;28;20038;-84
2023/03/18 06:02:13;;;;;;;4.38;2.00;;;10.90;81.50;;;;;;4980971;28;20026;-85
2023/03/18 06:04:39;;;;;;;5.00;2.30;;;10.90;81.50;;;;;;4999205;28;20033;-84
2023/03/18 06:07:05;;;;;;;4.97;1.98;;;10.90;81.50;;;;;;4981621;28;20037;-84
2023/03/18 06:09:33;;;;;;;4.32;2.10;;;10.90;81.60;;;;;;4981684;28;20033;-85
2023/03/18 06:11:58;;;;;;;4.75;2.03;;;10.90;81.50;;;;;;4999281;28;20022;-83
2023/03/18 06:14:28;;;;;;;4.82;2.00;;;10.90;81.50;;;;;;5000404;28;20034;-83
2023/03/18 06:16:56;;;;;;;4.05;2.00;;;10.90;81.60;;;;;;4982263;28;20030;-85
2023/03/18 06:19:22;;;;;;;4.57;2.13;;;10.90;81.60;;;;;;4982324;28;20094;-84
2023/03/18 06:21:48;;;;;;;4.93;2.20;;;10.90;81.60;;;;;;4981445;28;20058;-84
2023/03/18 06:24:14;;;;;;;3.83;2.25;;;10.90;81.60;;;;;;4999296;28;20026;-84
2023/03/18 06:26:40;;;;;;;4.20;1.90;;;10.90;81.60;;;;;;4980975;28;20042;-84
2023/03/18 06:29:06;;;;;;;5.28;2.10;;;10.90;81.60;;;;;;4964593;28;20034;-85
2023/03/18 06:31:33;;;;;;;4.07;1.75;;;10.90;81.60;;;;;;4961141;28;20038;-81
2023/03/18 06:33:59;;;;;;;4.72;2.10;;;10.90;81.70;;;;;;4960866;28;20058;-84
2023/03/18 06:36:25;;;;;;;4.40;2.30;;;10.90;81.70;;;;;;4960693;28;20080;-86
2023/03/18 06:38:51;;;;;;;4.25;2.00;;;10.90;81.70;;;;;;4978249;28;20041;-83
2023/03/18 06:41:17;;;;;;;5.93;2.67;;;10.90;81.70;;;;;;4960572;28;20121;-85
2023/03/18 06:43:43;;;;;;;4.55;2.13;;;10.90;81.80;;;;;;4978332;28;20090;-86
2023/03/18 06:46:09;;;;;;;5.93;2.50;;;10.90;81.80;;;;;;4959808;28;20045;-83
2023/03/18 06:48:39;;;;;;;4.93;2.15;;;10.90;81.80;;;;;;4959887;28;20026;-84
2023/03/18 06:51:05;;;;;;;5.13;2.35;;;10.90;81.80;;;;;;4960442;28;20035;-84
2023/03/18 06:53:30;;;;;;;4.65;2.08;;;10.90;81.80;;;;;;4961459;28;20035;-86
2023/03/18 06:55:56;;;;;;;6.10;2.45;;;10.90;81.80;;;;;;4960953;28;20037;-85
2023/03/18 06:58:21;;;;;;;5.43;2.25;;;10.90;81.70;;;;;;4961621;28;20592;-84
2023/03/18 07:00:47;;;;;;;6.68;2.30;;;10.90;81.80;;;;;;4979031;28;20037;-86
2023/03/18 07:03:14;;;;;;;5.15;2.22;;;10.90;81.80;;;;;;4961811;28;20023;-86
2023/03/18 07:05:41;;;;;;;4.38;2.10;;;10.90;81.80;;;;;;4960718;28;20026;-86
2023/03/18 07:08:07;;;;;;;4.82;2.28;;;10.90;81.80;;;;;;4960817;28;20038;-86
2023/03/18 07:10:33;;;;;;;5.68;2.30;;;10.90;81.80;;;;;;4960679;28;20507;-85
2023/03/18 07:12:59;;;;;;;4.95;2.25;;;10.90;81.80;;;;;;4961016;28;20023;-84
2023/03/18 07:15:25;;;;;;;4.50;2.30;;;10.90;81.90;;;;;;4976476;28;20027;-87
2023/03/18 07:17:52;;;;;;;4.57;2.05;;;11.00;81.90;;;;;;4959064;28;20051;-79
2023/03/18 07:20:18;;;;;;;4.03;1.98;;;11.00;81.80;;;;;;4976606;28;20504;-86
2023/03/18 07:22:45;;;;;;;3.88;2.03;;;11.00;81.80;;;;;;4977763;28;20031;-85
2023/03/18 07:25:12;;;;;;;5.10;2.10;;;10.90;81.80;;;;;;4978658;28;20489;-86
2023/03/18 07:27:38;;;;;;;4.00;2.05;;;10.90;81.70;;;;;;4959981;28;20570;-85
2023/03/18 07:30:05;;;;;;;4.25;2.30;;;11.00;81.80;;;;;;4960269;28;20930;-83
2023/03/18 07:32:30;;;;;;;3.95;2.20;;;11.00;81.80;;;;;;4959887;28;20038;-84
2023/03/18 07:34:56;;;;;;;4.65;2.13;;;10.90;81.80;;;;;;4959930;28;20054;-83
2023/03/18 07:37:22;;;;;;;4.75;1.90;;;10.90;81.80;;;;;;4959664;28;20035;-88
2023/03/18 07:39:48;;;;;;;4.90;2.10;;;11.00;81.80;;;;;;4979699;28;20022;-85
2023/03/18 07:42:14;;;;;;;4.40;2.25;;;10.90;81.80;;;;;;4966085;28;20133;-87
2023/03/18 07:44:39;;;;;;;5.63;2.22;;;11.00;81.80;;;;;;4980560;28;20022;-85
2023/03/18 07:47:07;;;;;;;3.67;1.95;;;11.00;81.80;;;;;;4981149;28;20616;-86
2023/03/18 07:49:33;;;;;;;4.45;2.35;;;11.00;81.80;;;;;;4979700;28;20088;-85
2023/03/18 07:51:58;;;;;;;4.60;2.00;;;11.00;81.80;;;;;;4978434;28;20026;-84
2023/03/18 07:54:24;;;;;;;4.65;2.22;;;11.00;81.80;;;;;;4979299;28;20041;-87
2023/03/18 07:56:50;;;;;;;5.00;2.47;;;11.00;81.80;;;;;;4978310;28;20033;-86
2023/03/18 07:59:19;;;;;;;5.10;2.10;;;11.00;81.80;;;;;;4977326;28;20644;-85
2023/03/18 08:01:45;;;;;;;4.85;2.22;;;11.00;81.80;;;;;;4977263;28;20037;-85
2023/03/18 08:04:11;;;;;;;6.00;1.90;;;11.00;81.80;;;;;;4977702;28;20045;-84
2023/03/18 17:46:20;;;;;;;5.47;3.55;;;11.80;82.80;;;;;;5835147;23;20114;-79
2023/03/18 21:36:38;;;;;;;5.85;3.30;;;11.60;84.00;;;;;;5524001;23;20050;-83
2023/03/18 21:39:04;;;;;;;6.03;3.53;;;11.60;84.10;;;;;;4981798;28;20081;-82
2023/03/18 21:41:30;;;;;;;6.28;3.00;;;11.60;84.10;;;;;;4981958;28;20489;-82
2023/03/18 21:43:55;;;;;;;6.22;3.28;;;11.70;84.20;;;;;;4984567;28;20480;-82
2023/03/18 21:46:23;;;;;;;6.07;3.40;;;11.60;84.00;;;;;;4984734;28;20030;-82
2023/03/18 21:48:50;;;;;;;6.15;3.35;;;11.60;84.10;;;;;;5000107;28;20113;-81
2023/03/18 21:51:23;;;;;;;6.13;3.35;;;11.60;84.10;;;;;;4999449;28;20073;-83
2023/03/18 21:53:49;;;;;;;5.05;3.25;;;11.70;84.20;;;;;;4980744;28;20116;-82
2023/03/18 21:56:15;;;;;;;5.32;3.25;;;11.60;84.20;;;;;;4982643;28;20054;-81
2023/03/18 21:58:41;;;;;;;5.90;3.50;;;11.60;84.20;;;;;;4982956;28;20489;-81
2023/03/18 22:01:30;;;;;;;6.72;3.97;;;11.60;84.20;;;;;;4982502;28;20026;-81
2023/03/18 22:03:56;;;;;;;5.97;3.80;;;11.60;84.20;;;;;;4998672;28;20078;-80
2023/03/18 22:06:21;;;;;;;5.40;3.42;;;11.60;84.20;;;;;;4982654;28;20022;-81
2023/03/18 22:08:47;;;;;;;5.75;3.63;;;11.60;84.20;;;;;;4982682;28;20053;-81
2023/03/18 22:11:20;;;;;;;5.10;3.15;;;11.60;84.10;;;;;;5000769;28;20026;-81
2023/03/18 22:13:47;;;;;;;5.90;3.53;;;11.50;84.10;;;;;;4986737;28;20450;-81
2023/03/18 22:16:14;;;;;;;5.72;3.00;;;11.60;84.70;;;;;;4979341;28;20648;-81
2023/03/18 22:18:41;;;;;;;6.65;3.63;;;11.60;84.20;;;;;;4981247;28;20114;-81
2023/03/18 22:21:23;;;;;;;4.97;3.10;;;11.60;84.20;;;;;;4980030;28;20026;-81
2023/03/18 22:23:49;;;;;;;6.47;3.75;;;11.60;84.20;;;;;;4981097;28;20022;-82
2023/03/18 22:26:17;;;;;;;5.70;3.47;;;11.60;84.20;;;;;;4980873;28;20090;-80
2023/03/18 22:28:43;;;;;;;6.53;3.60;;;11.60;84.30;;;;;;4980391;28;20053;-82
2023/03/18 22:31:22;;;;;;;5.22;3.25;;;11.60;84.20;;;;;;4979681;28;20115;-82
2023/03/18 22:33:47;;;;;;;6.43;3.70;;;11.60;84.30;;;;;;4980061;28;20026;-81
2023/03/18 22:36:15;;;;;;;5.82;3.40;;;11.60;84.30;;;;;;4980783;28;20034;-81
2023/03/18 22:38:40;;;;;;;6.43;4.10;;;11.60;84.30;;;;;;4977677;28;20026;-81
2023/03/18 22:41:19;;;;;;;6.00;3.90;;;11.60;84.30;;;;;;4978792;28;20048;-81
2023/03/18 22:43:45;;;;;;;6.07;3.67;;;11.60;84.30;;;;;;4979132;28;20026;-80
2023/03/18 22:46:11;;;;;;;6.03;3.58;;;11.60;84.30;;;;;;4979208;28;20030;-81
2023/03/18 22:48:37;;;;;;;6.10;3.50;;;11.60;84.30;;;;;;4979294;28;20033;-81
2023/03/18 22:51:03;;;;;;;5.53;3.60;;;11.60;84.30;;;;;;4978604;28;20030;-81
2023/03/18 22:53:35;;;;;;;6.05;3.80;;;11.60;84.40;;;;;;4996946;28;20046;-81
2023/03/18 22:56:07;;;;;;;6.20;4.20;;;11.60;84.30;;;;;;4978770;28;20057;-81
2023/03/18 22:58:33;;;;;;;6.43;3.78;;;11.60;84.30;;;;;;4978640;28;20038;-82
2023/03/18 23:00:59;;;;;;;6.63;3.97;;;11.60;84.30;;;;;;4979000;28;20019;-80
2023/03/18 23:03:29;;;;;;;6.80;3.70;;;11.60;84.30;;;;;;4978180;28;20109;-81
2023/03/18 23:05:57;;;;;;;6.35;3.42;;;11.60;84.30;;;;;;4996398;28;20053;-81
2023/03/18 23:08:23;;;;;;;6.60;3.75;;;11.60;84.30;;;;;;4978542;28;20037;-81
2023/03/18 23:10:51;;;;;;;5.88;3.67;;;11.60;84.30;;;;;;4977973;28;20657;-81
2023/03/18 23:13:23;;;;;;;6.45;3.95;;;11.60;84.30;;;;;;4978370;28;20035;-81
2023/03/18 23:15:49;;;;;;;5.78;3.80;;;11.60;84.30;;;;;;4978032;28;20037;-81
2023/03/18 23:18:16;;;;;;;6.93;3.45;;;11.60;84.30;;;;;;4977500;28;20030;-81
2023/03/18 23:20:43;;;;;;;6.53;3.70;;;11.60;84.30;;;;;;4994742;28;20033;-81
2023/03/18 23:23:09;;;;;;;5.40;3.45;;;11.60;84.30;;;;;;4977217;28;20078;-80
2023/03/18 23:25:35;;;;;;;6.43;3.95;;;11.60;84.30;;;;;;4977464;28;20396;-81
2023/03/18 23:28:01;;;;;;;5.78;3.60;;;11.60;84.30;;;;;;4994591;28;20038;-81
2023/03/18 23:30:26;;;;;;;6.28;3.63;;;11.60;84.30;;;;;;4994750;28;20023;-81
2023/03/18 23:32:52;;;;;;;6.15;3.75;;;11.60;84.30;;;;;;4995264;28;20026;-81
2023/03/18 23:35:18;;;;;;;6.72;3.75;;;11.60;84.30;;;;;;4977113;28;20061;-80
2023/03/18 23:37:43;;;;;;;6.00;3.67;;;11.60;84.30;;;;;;4994382;28;20429;-81
2023/03/18 23:40:09;;;;;;;6.28;3.60;;;11.60;84.30;;;;;;4977186;28;20019;-80
2023/03/18 23:42:34;;;;;;;5.95;3.70;;;11.60;84.30;;;;;;4994353;28;20073;-79
2023/03/18 23:45:01;;;;;;;5.40;3.40;;;11.60;84.30;;;;;;4976955;28;20027;-81
2023/03/18 23:47:27;;;;;;;5.78;3.67;;;11.60;84.80;;;;;;4994671;28;20102;-81
2023/03/18 23:49:52;;;;;;;6.90;4.13;;;11.60;84.30;;;;;;4976471;28;20046;-81
2023/03/18 23:52:18;;;;;;;6.32;3.67;;;11.60;84.30;;;;;;4976662;28;20053;-81
2023/03/18 23:54:43;;;;;;;6.13;3.70;;;11.60;84.30;;;;;;4994244;28;20514;-81
2023/03/18 23:57:10;;;;;;;5.95;3.60;;;11.60;84.30;;;;;;4976552;28;20049;-81
2023/03/18 23:59:36;;;;;;;5.88;3.65;;;11.60;84.40;;;;;;4976625;28;20113;-80
